Nokomis, Florida
Current Conditions -  °F | °C
As of 3:53 AM on Thursday 23 Oct 2014 (Local Time) from KSRQ Reporting Station
Clear Clear  
Wind Chill: 67°   Ceiling: Unl
Heat Index: 67°   Visibility: 10mi
Dew Point: 60°   Wind: 12mph
Humidity: 79%   Direction: 50°NE
Pressure: 29.93"   Gusts: NA
Location:  27.12°N, 82.44°W
Report Text: KSRQ 230753Z AUTO 05010KT 10SM CLR 19/16 A2993 RMK AO2 SLP133 T01940156
Loading
Personal Weather Stations






























Interactive Weather Map
Tropical Storm Tracking
New forecast layout! Learn more

10-Day Weather Forecast

Advertisements
Track Severe Weather on mobile